createdAt,value
2022-09-07T00:00:40.310Z,42.69
2022-09-07T00:01:40.304Z,44.11
2022-09-07T00:02:40.320Z,58.04
2022-09-07T00:03:40.289Z,51.16
2022-09-07T00:04:40.352Z,41.85
2022-09-07T00:05:40.275Z,45.46
2022-09-07T00:06:40.271Z,46.36
2022-09-07T00:07:40.253Z,48.02
2022-09-07T00:08:40.241Z,56.40
2022-09-07T00:09:40.241Z,54.12
2022-09-07T00:10:40.225Z,48.85
2022-09-07T00:11:40.226Z,54.78
2022-09-07T00:12:40.226Z,43.49
2022-09-07T00:13:40.204Z,55.82
2022-09-07T00:14:40.199Z,44.17
2022-09-07T00:15:40.223Z,43.92
2022-09-07T00:16:40.248Z,55.76
2022-09-07T00:17:40.234Z,44.28
2022-09-07T00:18:43.775Z,45.54
2022-09-07T00:19:42.160Z,45.75
2022-09-07T00:20:40.149Z,46.24
2022-09-07T00:21:40.138Z,42.31
2022-09-07T00:22:40.130Z,47.09
2022-09-07T00:23:40.122Z,41.74
2022-09-07T00:24:40.134Z,56.91
2022-09-07T00:25:40.120Z,53.38
2022-09-07T00:26:40.100Z,42.72
2022-09-07T00:27:40.098Z,40.87
2022-09-07T00:28:40.121Z,46.03
2022-09-07T00:29:40.083Z,49.81
2022-09-07T00:32:39.997Z,45.67
2022-09-07T00:33:39.987Z,52.40
2022-09-07T00:34:41.075Z,57.27
2022-09-07T00:35:41.100Z,48.53
2022-09-07T00:36:41.052Z,58.23
2022-09-07T00:37:41.044Z,49.86
2022-09-07T00:38:41.053Z,44.31
2022-09-07T00:39:41.085Z,47.69
2022-09-07T00:40:41.041Z,44.11
2022-09-07T00:41:41.012Z,45.34
2022-09-07T00:42:41.014Z,56.19
2022-09-07T00:43:41.004Z,51.86
2022-09-07T00:44:40.995Z,41.34
2022-09-07T00:45:40.981Z,41.14
2022-09-07T00:46:41.037Z,47.47
2022-09-07T00:47:40.973Z,41.44
2022-09-07T00:48:40.955Z,49.44
2022-09-07T00:49:40.947Z,50.87
2022-09-07T00:50:40.964Z,47.53
2022-09-07T00:51:40.933Z,61.14
2022-09-07T00:52:40.930Z,42.97
2022-09-07T00:53:40.918Z,48.58
2022-09-07T00:54:40.910Z,46.81
2022-09-07T00:55:40.906Z,41.41
2022-09-07T00:56:40.889Z,42.55
2022-09-07T00:57:40.897Z,59.04
2022-09-07T00:58:40.878Z,54.96
2022-09-07T00:59:40.863Z,45.92
2022-09-07T01:00:40.882Z,44.88
2022-09-07T01:01:40.972Z,52.50
2022-09-07T01:02:41.023Z,47.98
2022-09-07T01:03:41.369Z,51.42
2022-09-07T01:04:41.369Z,61.48
2022-09-07T01:05:40.821Z,44.27
2022-09-07T01:06:40.818Z,48.97
2022-09-07T01:07:40.809Z,44.34
2022-09-07T01:08:40.802Z,54.92
2022-09-07T01:09:40.796Z,41.72
2022-09-07T01:10:40.795Z,43.34
2022-09-07T01:11:40.787Z,44.10
2022-09-07T01:12:40.763Z,50.62
2022-09-07T01:13:40.763Z,55.46
2022-09-07T01:14:40.750Z,47.66
2022-09-07T01:15:40.800Z,49.24
2022-09-07T01:16:40.732Z,52.42
2022-09-07T01:17:40.724Z,47.29
2022-09-07T01:18:40.723Z,53.80
2022-09-07T01:19:41.387Z,45.41
2022-09-07T01:20:40.724Z,54.25
2022-09-07T01:21:40.767Z,59.61
2022-09-07T01:22:40.684Z,50.32
2022-09-07T01:23:40.670Z,44.61
2022-09-07T01:24:40.700Z,51.67
2022-09-07T01:25:40.660Z,44.41
2022-09-07T01:26:40.656Z,52.35
2022-09-07T01:27:40.645Z,55.65
2022-09-07T01:28:40.649Z,51.69
2022-09-07T01:29:40.633Z,54.59
2022-09-07T01:30:40.630Z,54.28
2022-09-07T01:31:40.615Z,46.86
2022-09-07T01:32:40.634Z,57.50
2022-09-07T01:33:40.596Z,50.30
2022-09-07T01:34:40.585Z,48.14
2022-09-07T01:35:41.460Z,48.70
2022-09-07T01:36:40.574Z,57.98
2022-09-07T01:37:40.574Z,53.68
2022-09-07T01:38:40.549Z,51.00
2022-09-07T01:39:40.597Z,54.19
2022-09-07T01:40:40.546Z,52.79
2022-09-07T01:41:40.533Z,49.59
2022-09-07T01:42:40.556Z,58.88
2022-09-07T01:43:40.511Z,45.89
2022-09-07T01:44:40.522Z,46.32
2022-09-07T01:45:40.497Z,57.09
2022-09-07T01:46:40.542Z,47.45
2022-09-07T01:47:40.551Z,46.77
2022-09-07T01:48:40.477Z,51.86
2022-09-07T01:49:40.465Z,48.62
2022-09-07T01:50:40.466Z,50.61
2022-09-07T01:51:40.459Z,52.28
2022-09-07T01:52:40.464Z,48.15
2022-09-07T01:53:40.454Z,51.19
2022-09-07T01:54:40.436Z,46.64
2022-09-07T01:55:40.454Z,48.54
2022-09-07T01:56:40.419Z,49.38
2022-09-07T01:57:40.411Z,51.41
2022-09-07T01:58:40.399Z,53.45
2022-09-07T01:59:40.400Z,47.64
2022-09-07T02:00:40.406Z,50.96
2022-09-07T02:01:40.455Z,49.60
2022-09-07T02:02:40.444Z,44.49
2022-09-07T02:03:40.356Z,56.77
2022-09-07T02:04:40.372Z,54.71
2022-09-07T02:05:40.357Z,52.31
2022-09-07T02:06:40.341Z,48.27
2022-09-07T02:07:40.343Z,47.95
2022-09-07T02:08:40.318Z,53.55
2022-09-07T02:09:40.307Z,45.10
2022-09-07T02:10:40.300Z,48.23
2022-09-07T02:11:40.306Z,48.92
2022-09-07T02:12:40.314Z,55.74
2022-09-07T02:13:40.274Z,52.10
2022-09-07T02:14:40.268Z,53.17
2022-09-07T02:15:40.303Z,46.24
2022-09-07T02:16:40.249Z,52.68
2022-09-07T02:17:40.241Z,50.06
2022-09-07T02:18:41.233Z,45.91
2022-09-07T02:19:40.229Z,57.14
2022-09-07T02:20:40.215Z,53.17
2022-09-07T02:21:40.217Z,58.79
2022-09-07T02:22:40.224Z,50.48
2022-09-07T02:23:40.203Z,57.24
2022-09-07T02:24:40.199Z,52.18
2022-09-07T02:25:40.178Z,48.87
2022-09-07T02:26:40.169Z,43.41
2022-09-07T02:27:40.166Z,52.48
2022-09-07T02:28:40.198Z,49.35
2022-09-07T02:29:40.149Z,57.81
2022-09-07T02:30:40.213Z,55.90
2022-09-07T02:31:40.132Z,42.73
2022-09-07T02:32:40.134Z,48.92
2022-09-07T02:33:40.132Z,58.79
2022-09-07T02:34:40.111Z,54.00
2022-09-07T02:35:40.103Z,50.43
2022-09-07T02:36:40.112Z,46.08
2022-09-07T02:37:40.087Z,53.46
2022-09-07T02:38:40.063Z,53.53
2022-09-07T02:39:41.166Z,49.31
2022-09-07T02:40:40.066Z,53.55
2022-09-07T02:41:40.052Z,55.00
2022-09-07T02:42:40.057Z,50.70
2022-09-07T02:43:40.040Z,55.10
2022-09-07T02:44:40.023Z,47.91
2022-09-07T02:45:40.026Z,54.37
2022-09-07T02:46:40.058Z,52.38
2022-09-07T02:47:40.022Z,54.59
2022-09-07T02:48:39.996Z,56.22
2022-09-07T02:49:40.006Z,55.15
2022-09-07T02:50:39.990Z,52.40
2022-09-07T02:51:39.992Z,51.20
2022-09-07T02:52:39.980Z,55.67
2022-09-07T02:53:39.951Z,54.55
2022-09-07T02:54:39.960Z,58.70
2022-09-07T02:55:39.944Z,60.14
2022-09-07T02:56:39.937Z,52.43
2022-09-07T02:57:39.924Z,51.04
2022-09-07T02:58:39.922Z,58.30
2022-09-07T02:59:39.909Z,57.63
2022-09-07T03:00:39.913Z,47.57
2022-09-07T03:01:39.952Z,59.94
2022-09-07T03:02:39.951Z,56.89
2022-09-07T03:03:39.891Z,52.28
2022-09-07T03:04:39.876Z,57.07
2022-09-07T03:05:39.864Z,64.17
2022-09-07T03:06:39.857Z,64.84
2022-09-07T03:07:43.975Z,59.28
2022-09-07T03:08:40.842Z,56.33
2022-09-07T03:09:40.412Z,60.41
2022-09-07T03:10:39.845Z,59.15
2022-09-07T03:11:39.826Z,57.88
2022-09-07T03:12:39.831Z,57.44
2022-09-07T03:13:39.808Z,49.41
2022-09-07T03:14:39.792Z,55.55
2022-09-07T03:15:39.904Z,56.21
2022-09-07T03:16:39.787Z,58.18
2022-09-07T03:17:39.783Z,59.01
2022-09-07T03:18:39.774Z,55.36
2022-09-07T03:19:39.771Z,65.13
2022-09-07T03:20:39.758Z,58.10
2022-09-07T03:21:39.740Z,64.00
2022-09-07T03:22:39.758Z,57.99
2022-09-07T03:23:39.725Z,61.43
2022-09-07T03:24:39.721Z,57.26
2022-09-07T03:25:39.722Z,60.55
2022-09-07T03:26:39.714Z,58.55
2022-09-07T03:27:39.693Z,61.16
2022-09-07T03:29:12.433Z,56.84
2022-09-07T03:29:41.973Z,58.13
2022-09-07T03:30:40.700Z,60.21
2022-09-07T03:31:39.667Z,59.18
2022-09-07T03:32:39.660Z,58.77
2022-09-07T03:33:39.645Z,60.40
2022-09-07T03:34:39.647Z,64.43
2022-09-07T03:35:39.627Z,63.36
2022-09-07T03:36:39.617Z,61.85
2022-09-07T03:37:39.610Z,61.66
2022-09-07T03:38:39.607Z,63.10
2022-09-07T03:39:39.640Z,62.23
2022-09-07T03:40:39.597Z,57.37
2022-09-07T03:41:39.580Z,56.77
2022-09-07T03:42:39.570Z,59.62
2022-09-07T03:43:39.559Z,60.44
2022-09-07T03:44:39.562Z,60.04
2022-09-07T03:45:39.631Z,54.76
2022-09-07T03:46:39.538Z,61.11
2022-09-07T03:47:39.557Z,64.74
2022-09-07T03:48:39.534Z,63.69
2022-09-07T03:49:39.518Z,60.21
2022-09-07T03:50:39.512Z,62.07
2022-09-07T03:51:39.499Z,61.79
2022-09-07T03:52:39.492Z,61.78
2022-09-07T03:53:39.483Z,62.87
2022-09-07T03:54:39.907Z,56.76
2022-09-07T03:55:40.474Z,63.97
2022-09-07T03:56:39.471Z,59.26
2022-09-07T03:57:39.451Z,62.86
2022-09-07T03:58:39.446Z,59.41
2022-09-07T03:59:39.433Z,58.91
2022-09-07T04:00:39.425Z,64.88
2022-09-07T04:01:39.496Z,62.04
2022-09-07T04:02:39.458Z,62.81
2022-09-07T04:03:39.400Z,64.67
2022-09-07T04:04:39.396Z,61.23
2022-09-07T04:05:39.383Z,62.53
2022-09-07T04:06:39.371Z,57.52
2022-09-07T04:07:39.377Z,54.75
2022-09-07T04:08:39.357Z,58.71
2022-09-07T04:09:39.358Z,62.25
2022-09-07T04:10:39.347Z,58.63
2022-09-07T04:11:39.330Z,58.69
2022-09-07T04:12:39.336Z,61.63
2022-09-07T04:13:39.319Z,60.98
2022-09-07T04:14:39.305Z,60.50
2022-09-07T04:15:40.301Z,62.74
2022-09-07T04:16:39.338Z,60.10
2022-09-07T04:17:39.293Z,61.91
2022-09-07T04:18:39.280Z,61.81
2022-09-07T04:19:39.279Z,58.95
2022-09-07T04:20:39.280Z,66.73
2022-09-07T04:21:39.254Z,67.69
2022-09-07T04:22:39.252Z,73.46
2022-09-07T04:23:39.239Z,67.99
2022-09-07T04:24:39.236Z,65.61
2022-09-07T04:25:39.222Z,62.44
2022-09-07T04:26:39.210Z,63.35
2022-09-07T04:27:39.213Z,65.77
2022-09-07T04:28:39.203Z,68.73
2022-09-07T04:29:39.195Z,69.14
2022-09-07T04:30:39.259Z,68.06
2022-09-07T04:31:39.174Z,65.88
2022-09-07T04:32:39.166Z,65.03
2022-09-07T04:33:39.162Z,63.90
2022-09-07T04:34:39.156Z,63.71
2022-09-07T04:35:39.142Z,64.19
2022-09-07T04:36:39.131Z,61.59
2022-09-07T04:37:39.138Z,63.09
2022-09-07T04:38:39.955Z,59.91
2022-09-07T04:39:39.130Z,61.76
2022-09-07T04:40:39.103Z,62.58
2022-09-07T04:41:39.108Z,61.07
2022-09-07T04:42:39.095Z,60.42
2022-09-07T04:43:39.081Z,60.21
2022-09-07T04:44:39.070Z,63.99
2022-09-07T04:45:39.278Z,59.95
2022-09-07T04:46:39.083Z,60.61
2022-09-07T04:47:39.632Z,59.41
2022-09-07T04:48:39.056Z,62.41
2022-09-07T04:49:39.045Z,62.62
2022-09-07T04:50:39.031Z,64.22
2022-09-07T04:51:39.023Z,65.56
2022-09-07T04:52:39.041Z,61.80
2022-09-07T04:53:39.004Z,62.57
2022-09-07T04:54:39.005Z,63.20
2022-09-07T04:55:39.251Z,65.92
2022-09-07T04:56:38.980Z,63.55
2022-09-07T04:57:39.539Z,63.11
2022-09-07T04:58:38.981Z,64.35
2022-09-07T04:59:38.958Z,63.83
2022-09-07T05:00:38.937Z,65.93
2022-09-07T05:01:38.988Z,70.32
2022-09-07T05:02:38.960Z,71.10
2022-09-07T05:03:38.914Z,70.80
2022-09-07T05:04:38.914Z,71.77
2022-09-07T05:05:38.899Z,68.96
2022-09-07T05:06:38.899Z,69.88
2022-09-07T05:07:38.887Z,69.79
2022-09-07T05:08:38.874Z,67.51
2022-09-07T05:09:38.864Z,67.95
2022-09-07T05:10:38.870Z,61.63
2022-09-07T05:11:38.865Z,66.65
2022-09-07T05:12:38.851Z,69.09
2022-09-07T05:13:38.849Z,67.76
2022-09-07T05:14:38.829Z,68.09
2022-09-07T05:15:38.822Z,66.76
2022-09-07T05:16:38.887Z,67.70
2022-09-07T05:17:38.805Z,67.29
2022-09-07T05:18:38.823Z,70.24
2022-09-07T05:19:38.796Z,66.57
2022-09-07T05:20:38.795Z,67.78
2022-09-07T05:21:38.996Z,70.73
2022-09-07T05:22:38.809Z,70.06
2022-09-07T05:23:38.756Z,67.73
2022-09-07T05:24:38.762Z,67.66
2022-09-07T05:25:38.751Z,68.38
2022-09-07T05:26:38.737Z,68.74
2022-09-07T05:27:38.724Z,68.03
2022-09-07T05:28:38.709Z,65.59
2022-09-07T05:31:40.711Z,68.56
2022-09-07T05:32:38.699Z,70.10
2022-09-07T05:34:40.670Z,66.31
2022-09-07T05:35:38.677Z,64.92
2022-09-07T05:36:38.653Z,66.99
2022-09-07T05:37:38.657Z,69.15
2022-09-07T05:38:38.634Z,69.45
2022-09-07T05:39:38.658Z,68.51
2022-09-07T05:40:40.865Z,66.69
2022-09-07T05:41:39.604Z,65.96
2022-09-07T05:42:39.550Z,66.97
2022-09-07T05:44:44.091Z,65.78
2022-09-07T05:45:39.658Z,66.79
2022-09-07T05:46:38.569Z,66.08
2022-09-07T05:47:38.559Z,66.64
2022-09-07T05:48:38.558Z,66.95
2022-09-07T05:49:38.994Z,64.57
2022-09-07T05:50:38.538Z,66.74
2022-09-07T05:51:38.534Z,67.71
2022-09-07T05:52:38.534Z,65.89
2022-09-07T05:53:38.526Z,69.12
2022-09-07T05:54:38.507Z,67.89
2022-09-07T05:55:38.502Z,66.12
2022-09-07T05:56:38.490Z,67.66
2022-09-07T05:57:38.497Z,67.73
2022-09-07T05:58:38.472Z,67.89
2022-09-07T05:59:38.500Z,66.92
2022-09-07T06:00:38.492Z,66.39
2022-09-07T06:01:39.103Z,65.07
2022-09-07T06:02:39.880Z,67.76
2022-09-07T06:03:39.435Z,67.38
2022-09-07T06:04:38.478Z,64.25
2022-09-07T06:05:38.446Z,66.50
2022-09-07T06:06:38.422Z,66.14
2022-09-07T06:07:38.406Z,65.76
2022-09-07T06:08:38.402Z,63.95
2022-09-07T06:10:43.723Z,64.71
2022-09-07T06:11:39.375Z,69.11
2022-09-07T06:12:38.370Z,63.65
2022-09-07T06:13:38.357Z,63.90
2022-09-07T06:14:38.355Z,65.58
2022-09-07T06:15:38.350Z,64.41
2022-09-07T06:16:38.410Z,63.40
2022-09-07T06:17:38.328Z,62.90
2022-09-07T06:18:39.199Z,66.32
2022-09-07T06:19:38.329Z,64.29
2022-09-07T06:20:38.318Z,67.93
2022-09-07T06:21:38.295Z,65.38
2022-09-07T06:22:38.284Z,63.35
2022-09-07T06:23:38.276Z,63.92
2022-09-07T06:24:38.272Z,66.09
2022-09-07T06:25:38.284Z,63.51
2022-09-07T06:26:38.253Z,63.45
2022-09-07T06:27:38.248Z,63.68
2022-09-07T06:28:38.241Z,62.11
2022-09-07T06:29:38.233Z,63.64
2022-09-07T06:30:38.228Z,64.29
2022-09-07T06:33:39.208Z,64.47
2022-09-07T06:34:38.201Z,65.76
2022-09-07T06:35:38.181Z,65.99
2022-09-07T06:36:38.180Z,65.60
2022-09-07T06:37:38.171Z,63.30
2022-09-07T06:38:38.159Z,66.17
2022-09-07T06:39:38.188Z,64.37
2022-09-07T06:40:38.149Z,63.64
2022-09-07T06:42:40.131Z,64.82
2022-09-07T06:43:39.994Z,63.13
2022-09-07T06:44:38.140Z,63.83
2022-09-07T06:45:38.152Z,63.54
2022-09-07T06:47:07.506Z,61.73
2022-09-07T06:47:40.092Z,64.39
2022-09-07T06:48:40.489Z,65.72
2022-09-07T06:49:39.077Z,62.95
2022-09-07T06:50:38.068Z,66.31
2022-09-07T06:51:38.073Z,65.87
2022-09-07T06:53:41.823Z,60.27
2022-09-07T06:55:40.026Z,62.14
2022-09-07T06:56:38.023Z,65.19
2022-09-07T06:57:38.017Z,64.97
2022-09-07T06:58:41.781Z,66.34
2022-09-07T06:59:39.064Z,64.86
2022-09-07T07:00:38.083Z,63.91
2022-09-07T07:01:38.000Z,62.73
2022-09-07T07:02:37.982Z,64.33
2022-09-07T07:03:38.019Z,65.55
2022-09-07T07:04:40.866Z,65.01
2022-09-07T07:05:38.949Z,63.59
2022-09-07T07:06:37.934Z,64.40
2022-09-07T07:07:37.932Z,63.85
2022-09-07T07:08:37.917Z,62.09
2022-09-07T07:09:37.921Z,63.15
2022-09-07T07:10:37.901Z,64.05
2022-09-07T07:11:37.891Z,62.06
2022-09-07T07:14:22.628Z,63.71
2022-09-07T07:15:22.615Z,63.58
2022-09-07T07:16:22.670Z,60.98
2022-09-07T07:17:22.608Z,63.36
2022-09-07T07:18:22.593Z,64.80
2022-09-07T07:19:22.587Z,64.69
2022-09-07T07:20:23.748Z,66.18
2022-09-07T07:21:23.669Z,64.19
2022-09-07T07:22:45.564Z,64.75
2022-09-07T07:23:25.770Z,62.97
2022-09-07T07:24:23.646Z,63.19
2022-09-07T07:25:23.636Z,63.45
2022-09-07T07:26:23.633Z,62.20
2022-09-07T07:27:23.622Z,62.76
2022-09-07T07:29:28.263Z,62.41
2022-09-07T07:30:24.586Z,65.13
2022-09-07T07:31:24.580Z,62.07
2022-09-07T07:32:24.075Z,63.25
2022-09-07T07:33:23.597Z,63.68
2022-09-07T07:34:24.193Z,64.21
2022-09-07T07:35:23.553Z,61.80
2022-09-07T07:36:23.541Z,64.12
2022-09-07T07:37:27.392Z,65.15
2022-09-07T07:40:29.052Z,62.22
2022-09-07T07:42:25.502Z,60.88
2022-09-07T07:43:23.506Z,62.88
2022-09-07T07:44:23.492Z,66.85
2022-09-07T07:46:25.521Z,62.25
2022-09-07T07:47:23.458Z,62.56
2022-09-07T07:49:23.438Z,62.81
2022-09-07T07:50:31.644Z,61.54
2022-09-07T07:51:25.470Z,64.03
2022-09-07T07:53:41.850Z,63.86
2022-09-07T07:54:25.400Z,63.26
2022-09-07T07:56:25.388Z,63.70
2022-09-07T07:57:23.381Z,64.98
2022-09-07T07:58:23.371Z,62.48
2022-09-07T07:59:23.359Z,63.26
2022-09-07T08:00:37.379Z,65.86
2022-09-07T08:01:25.435Z,61.90
2022-09-07T08:02:23.413Z,64.33
2022-09-07T08:03:23.364Z,62.34
2022-09-07T08:04:23.321Z,64.51
2022-09-07T08:05:24.102Z,64.24
2022-09-07T08:06:23.330Z,63.87
2022-09-07T08:07:23.364Z,61.59
2022-09-07T08:08:23.297Z,61.78
2022-09-07T08:09:23.284Z,63.11
2022-09-07T08:10:23.277Z,60.42
2022-09-07T08:11:23.273Z,62.95
2022-09-07T08:12:29.129Z,65.01
2022-09-07T08:13:25.258Z,59.70
2022-09-07T08:14:23.244Z,61.53
2022-09-07T08:15:23.246Z,63.02
2022-09-07T08:16:23.363Z,60.74
2022-09-07T08:17:23.231Z,62.44
2022-09-07T08:18:23.228Z,65.57
2022-09-07T08:19:23.202Z,65.38
2022-09-07T08:20:23.197Z,64.97
2022-09-07T08:21:23.187Z,66.52
2022-09-07T08:22:23.194Z,63.36
2022-09-07T08:23:23.200Z,63.46
2022-09-07T08:24:23.174Z,62.21
2022-09-07T08:25:23.155Z,62.38
2022-09-07T08:26:23.187Z,59.38
2022-09-07T08:27:23.149Z,62.38
2022-09-07T08:28:25.151Z,68.23
2022-09-07T08:29:23.128Z,64.26
2022-09-07T08:30:23.113Z,65.26
2022-09-07T08:31:23.129Z,63.05
2022-09-07T08:32:23.104Z,62.55
2022-09-07T08:33:23.096Z,62.15
2022-09-07T08:34:23.095Z,58.62
2022-09-07T08:35:23.076Z,63.17
2022-09-07T08:36:23.068Z,65.02
2022-09-07T08:37:23.058Z,61.26
2022-09-07T08:38:23.112Z,62.61
2022-09-07T08:39:23.044Z,65.02
2022-09-07T08:40:23.033Z,61.27
2022-09-07T08:41:23.530Z,61.87
2022-09-07T08:42:23.021Z,63.18
2022-09-07T08:43:23.012Z,62.65
2022-09-07T08:44:23.002Z,63.18
2022-09-07T08:45:22.992Z,61.03
2022-09-07T08:46:23.041Z,63.79
2022-09-07T08:47:22.988Z,61.19
2022-09-07T08:48:22.977Z,61.12
2022-09-07T08:49:22.960Z,61.48
2022-09-07T08:50:22.964Z,61.21
2022-09-07T08:51:24.423Z,63.22
2022-09-07T08:52:23.953Z,61.84
2022-09-07T08:53:22.934Z,64.08
2022-09-07T08:54:22.934Z,63.79
2022-09-07T08:55:22.925Z,62.68
2022-09-07T08:56:22.904Z,66.62
2022-09-07T08:57:22.924Z,62.91
2022-09-07T08:58:47.570Z,68.81
2022-09-07T08:59:24.884Z,63.40
2022-09-07T09:00:22.878Z,67.38
2022-09-07T09:01:38.839Z,62.02
2022-09-07T09:02:28.682Z,63.39
2022-09-07T09:04:25.514Z,64.92
2022-09-07T09:05:23.009Z,64.01
2022-09-07T09:06:11.037Z,61.66
2022-09-07T09:06:22.915Z,63.04
2022-09-07T09:07:22.834Z,60.86
2022-09-07T09:08:22.831Z,61.34
2022-09-07T09:09:22.805Z,62.79
2022-09-07T09:10:22.806Z,62.04
2022-09-07T09:11:22.802Z,63.83
2022-09-07T09:12:22.791Z,61.69
2022-09-07T09:13:22.780Z,65.65
2022-09-07T09:14:22.785Z,62.87
2022-09-07T09:15:22.768Z,62.46
2022-09-07T09:16:22.856Z,62.10
2022-09-07T09:17:22.739Z,62.07
2022-09-07T09:18:22.742Z,62.47
2022-09-07T09:19:22.741Z,65.37
2022-09-07T09:20:22.730Z,65.91
2022-09-07T09:21:22.730Z,63.56
2022-09-07T09:22:22.718Z,63.87
2022-09-07T09:23:22.708Z,64.19
2022-09-07T09:24:22.709Z,62.10
2022-09-07T09:25:22.692Z,63.25
2022-09-07T09:26:22.698Z,61.99
2022-09-07T09:27:22.670Z,62.13
2022-09-07T09:28:22.664Z,63.45
2022-09-07T09:29:22.661Z,62.60
2022-09-07T09:30:22.644Z,63.13
2022-09-07T09:31:22.666Z,62.80
2022-09-07T09:32:22.634Z,61.51
2022-09-07T09:33:22.637Z,62.57
2022-09-07T09:34:24.070Z,61.73
2022-09-07T09:35:22.612Z,62.48
2022-09-07T09:36:22.609Z,62.10
2022-09-07T09:37:22.676Z,63.25
2022-09-07T09:38:22.583Z,66.35
2022-09-07T09:39:22.583Z,63.60
2022-09-07T09:40:22.671Z,62.70
2022-09-07T09:41:23.556Z,62.40
2022-09-07T09:42:22.565Z,62.76
2022-09-07T09:43:22.601Z,62.25
2022-09-07T09:44:23.521Z,60.88
2022-09-07T09:45:22.550Z,60.72
2022-09-07T09:46:22.627Z,59.81
2022-09-07T09:47:30.147Z,62.49
2022-09-07T09:48:24.568Z,60.61
2022-09-07T09:49:22.545Z,58.64
2022-09-07T09:52:29.844Z,62.34
2022-09-07T09:53:24.475Z,60.18
2022-09-07T09:54:22.477Z,61.90
2022-09-07T09:55:37.915Z,63.47
2022-09-07T09:56:24.463Z,64.60
2022-09-07T09:57:22.459Z,64.52
2022-09-07T10:00:29.305Z,63.36
2022-09-07T10:01:25.710Z,65.65
2022-09-07T10:04:24.794Z,64.26
2022-09-07T10:05:23.384Z,64.89
2022-09-07T10:06:22.383Z,63.68
2022-09-07T10:07:22.369Z,59.08
2022-09-07T10:08:22.379Z,62.80
2022-09-07T10:09:22.373Z,63.01
2022-09-07T10:10:22.339Z,62.53
2022-09-07T10:11:22.518Z,63.67
2022-09-07T10:12:22.356Z,62.04
2022-09-07T10:13:22.349Z,61.82
2022-09-07T10:14:22.362Z,62.83
2022-09-07T10:15:22.323Z,63.40
2022-09-07T10:16:22.324Z,64.93
2022-09-07T10:17:22.303Z,64.20
2022-09-07T10:18:22.289Z,64.24
2022-09-07T10:19:22.284Z,64.46
2022-09-07T10:20:22.269Z,64.72
2022-09-07T10:21:22.271Z,63.96
2022-09-07T10:22:22.262Z,64.76
2022-09-07T10:23:22.261Z,61.77
2022-09-07T10:24:22.242Z,63.61
2022-09-07T10:25:22.233Z,63.49
2022-09-07T10:26:22.230Z,63.95
2022-09-07T10:27:24.086Z,65.05
2022-09-07T10:28:22.519Z,65.30
2022-09-07T10:29:23.142Z,65.87
2022-09-07T10:30:22.192Z,67.14
2022-09-07T10:31:22.244Z,64.68
2022-09-07T10:32:22.194Z,65.21
2022-09-07T10:33:22.179Z,65.15
2022-09-07T10:34:29.219Z,65.07
2022-09-07T10:35:24.165Z,62.63
2022-09-07T10:36:22.202Z,64.45
2022-09-07T10:37:22.139Z,63.94
2022-09-07T10:38:22.195Z,62.07
2022-09-07T10:39:22.162Z,60.70
2022-09-07T10:40:22.156Z,62.46
2022-09-07T10:41:22.100Z,60.67
2022-09-07T10:42:22.108Z,62.78
2022-09-07T10:43:22.599Z,62.93
2022-09-07T10:44:22.080Z,62.03
2022-09-07T10:45:22.081Z,61.86
2022-09-07T10:47:24.776Z,61.85
2022-09-07T10:48:23.047Z,62.23
2022-09-07T10:49:22.044Z,61.90
2022-09-07T10:50:22.516Z,66.03
2022-09-07T10:51:23.031Z,61.86
2022-09-07T10:52:22.668Z,64.12
2022-09-07T10:53:40.948Z,61.79
2022-09-07T10:54:31.489Z,62.53
2022-09-07T10:55:23.997Z,62.23
2022-09-07T10:56:21.990Z,67.24
2022-09-07T10:57:22.031Z,67.79
2022-09-07T10:59:01.452Z,66.88
2022-09-07T10:59:23.662Z,65.73
2022-09-07T11:00:21.964Z,66.66
2022-09-07T11:01:22.124Z,64.85
2022-09-07T11:02:22.053Z,66.38
2022-09-07T11:03:55.373Z,66.42
2022-09-07T11:04:21.917Z,64.04
2022-09-07T11:05:23.638Z,62.97
2022-09-07T11:06:21.971Z,63.73
2022-09-07T11:07:55.370Z,64.71
2022-09-07T11:08:21.944Z,60.00
2022-09-07T11:09:22.317Z,64.35
2022-09-07T11:10:21.878Z,62.21
2022-09-07T11:12:27.821Z,63.10
2022-09-07T11:13:22.871Z,62.89
2022-09-07T11:14:21.892Z,63.58
2022-09-07T11:15:21.866Z,64.70
2022-09-07T11:16:52.560Z,66.87
2022-09-07T11:17:23.994Z,66.49
2022-09-07T11:18:23.782Z,64.45
2022-09-07T11:19:37.821Z,67.68
2022-09-07T11:20:23.837Z,68.30
2022-09-07T11:22:23.787Z,66.91
2022-09-07T11:23:54.674Z,63.55
2022-09-07T11:24:21.760Z,64.82
2022-09-07T11:25:29.424Z,64.52
2022-09-07T11:26:23.746Z,65.16
2022-09-07T11:27:21.737Z,65.02
2022-09-07T11:28:21.731Z,63.42
2022-09-07T11:29:29.407Z,63.53
2022-09-07T11:30:23.731Z,63.18
2022-09-07T11:31:21.759Z,62.14
2022-09-07T11:32:21.703Z,65.18
2022-09-07T11:33:21.734Z,62.58
2022-09-07T11:34:24.985Z,61.56
2022-09-07T11:35:22.697Z,63.28
2022-09-07T11:36:21.686Z,61.37
2022-09-07T11:37:21.691Z,63.29
2022-09-07T11:38:21.673Z,61.47
2022-09-07T11:39:21.664Z,60.76
2022-09-07T11:40:21.669Z,60.10
2022-09-07T11:41:21.627Z,61.71
2022-09-07T11:43:22.649Z,62.46
2022-09-07T11:44:21.849Z,61.98
2022-09-07T11:45:22.171Z,62.44
2022-09-07T11:46:21.656Z,60.74
2022-09-07T11:47:21.584Z,60.43
2022-09-07T11:48:21.575Z,62.08
2022-09-07T11:49:21.577Z,60.66
2022-09-07T11:50:21.574Z,61.48
2022-09-07T11:51:21.589Z,60.63
2022-09-07T11:52:23.308Z,60.54
2022-09-07T11:53:21.551Z,63.95
2022-09-07T11:54:21.542Z,61.12
2022-09-07T11:55:21.528Z,63.59
2022-09-07T11:56:21.519Z,62.12
2022-09-07T11:57:21.508Z,61.79
2022-09-07T11:58:21.504Z,62.42
2022-09-07T11:59:21.490Z,63.23
2022-09-07T12:00:21.534Z,66.39
2022-09-07T12:01:21.497Z,63.55
2022-09-07T12:02:28.666Z,62.90
2022-09-07T12:03:23.490Z,63.69
2022-09-07T12:04:22.493Z,63.44
2022-09-07T12:05:21.474Z,62.62
2022-09-07T12:06:21.441Z,63.17
2022-09-07T12:07:21.436Z,59.94
2022-09-07T12:08:21.427Z,61.29
2022-09-07T12:09:21.433Z,60.99
2022-09-07T12:10:21.423Z,61.66
2022-09-07T12:11:23.515Z,61.77
2022-09-07T12:12:22.402Z,62.13
2022-09-07T12:13:21.392Z,59.73
2022-09-07T12:14:21.393Z,59.98
2022-09-07T12:15:21.375Z,60.59
2022-09-07T12:16:21.404Z,57.99
2022-09-07T12:17:22.285Z,61.44
2022-09-07T12:18:21.367Z,64.09
2022-09-07T12:19:21.351Z,63.59
2022-09-07T12:20:21.339Z,65.18
2022-09-07T12:21:21.335Z,65.49
2022-09-07T12:22:21.352Z,66.15
2022-09-07T12:23:21.309Z,62.24
2022-09-07T12:24:21.302Z,62.40
2022-09-07T12:25:21.293Z,64.53
2022-09-07T12:26:21.295Z,66.00
2022-09-07T12:27:21.286Z,59.09
2022-09-07T12:28:22.173Z,63.00
2022-09-07T12:29:22.270Z,61.63
2022-09-07T12:30:21.273Z,63.47
2022-09-07T12:31:22.152Z,62.06
2022-09-07T12:33:23.232Z,62.14
2022-09-07T12:34:21.229Z,62.09
2022-09-07T12:35:21.215Z,62.44
2022-09-07T12:36:21.223Z,64.59
2022-09-07T12:37:21.206Z,62.67
2022-09-07T12:38:21.201Z,61.47
2022-09-07T12:39:21.198Z,61.18
2022-09-07T12:40:21.208Z,59.73
2022-09-07T12:41:21.190Z,62.26
2022-09-07T12:42:37.482Z,61.98
2022-09-07T12:43:23.165Z,61.90
2022-09-07T12:44:21.153Z,61.45
2022-09-07T12:45:21.156Z,62.52
2022-09-07T12:46:21.199Z,60.81
2022-09-07T12:47:21.611Z,62.34
2022-09-07T12:48:21.129Z,60.42
2022-09-07T12:49:21.109Z,64.00
2022-09-07T12:50:21.107Z,62.77
2022-09-07T12:51:59.290Z,64.14
2022-09-07T12:52:23.086Z,61.55
2022-09-07T12:53:21.080Z,65.09
2022-09-07T12:54:21.082Z,60.95
2022-09-07T12:55:28.551Z,63.69
2022-09-07T12:56:23.073Z,64.12
2022-09-07T12:57:36.468Z,61.76
2022-09-07T12:58:23.054Z,62.06
2022-09-07T12:59:21.051Z,62.82
2022-09-07T13:00:21.027Z,63.85
2022-09-07T13:01:21.117Z,64.21
2022-09-07T13:02:21.186Z,62.29
2022-09-07T13:04:23.802Z,63.78
2022-09-07T13:05:20.990Z,61.94
2022-09-07T13:07:01.772Z,64.05
2022-09-07T13:07:22.983Z,61.04
2022-09-07T13:08:20.969Z,60.66
2022-09-07T13:09:20.970Z,60.50
2022-09-07T13:10:20.976Z,61.25
2022-09-07T13:11:21.680Z,63.80
2022-09-07T13:14:23.367Z,61.45
2022-09-07T13:15:24.115Z,61.45
2022-09-07T13:16:22.006Z,61.64
2022-09-07T13:17:20.952Z,60.81
2022-09-07T13:18:20.894Z,62.77
2022-09-07T13:19:20.900Z,63.11
2022-09-07T13:20:20.892Z,66.44
2022-09-07T13:21:20.873Z,65.21
2022-09-07T13:22:20.878Z,60.78
2022-09-07T13:23:20.851Z,64.17
2022-09-07T13:25:22.902Z,64.83
2022-09-07T13:26:20.855Z,66.15
2022-09-07T13:27:54.285Z,63.13
2022-09-07T13:28:20.833Z,62.93
2022-09-07T13:29:20.825Z,65.86